Saluda, Virginia
Current Conditions -  °F | °C
As of 2:35 PM on Thursday 27 Nov 2014 (Local Time) from KW75 Reporting Station
Overcast Overcast  
Wind Chill: 39°   Ceiling: 2000
Heat Index: 42°   Visibility: 10mi
Dew Point: 37°   Wind: 5mph
Humidity: 83%   Direction: 340°NNW
Pressure: 30.03"   Gusts: NA
Location:  37.61°N, 76.59°W
Report Text: KW75 271935Z AUTO 34004KT 10SM SCT012 OVC020 06/03 A3003 RMK AO1 T00550029
Loading
Personal Weather Stations






























Interactive Weather Map New forecast layout! Learn more

10-Day Weather Forecast

Advertisements
Track Severe Weather on mobile